Terminal Aerodrome Forecast
Issued by NWS

Home | Current Version | Previous Version | Text Only | Print | Product List | Glossary On
Versions: 1 2 3 4 5 6 7 8 9 10 11 12 13 14 15 16 17 18 19 20 21 22 23 24 25 26 27 28 29 30 31 32 33 34 35 36 37 38 39
000
FTUS42 KJAX 181700
TAFVQQ
TAF
KVQQ 181732Z 1818/1918 VRB03KT P6SM SCT035 BKN250
     FM182000 VRB05KT P6SM VCSH SCT030 BKN250
     FM190200 00000KT P6SM SCT040 BKN250
     FM190800 00000KT 3SM BR FEW010 BKN200
     FM191400 04005KT P6SM SCT015 BKN200=

USA.gov is the U.S. government's official web portal to all federal, state and local government web resources and services.